Time;durP1;ratioP1;P1;durP2;ratioP2;P2;SDS_P1;SDS_P2;PMS_P1;PMS_P2;Temp;Humidity;BMP_temperature;BMP_pressure;BME280_temperature;BME280_humidity;BME280_pressure;Samples;Min_cycle;Max_cycle;Signal;HPM_P1;HPM_P2
2022/01/26 00:10:11;;;;;;;45.30;14.95;;;7.00;97.70;;;;;;10522754;28;20035;-65
2022/01/26 00:15:12;;;;;;;42.83;15.18;;;7.00;97.70;;;;;;10502346;28;20028;-67
2022/01/26 00:20:26;;;;;;;47.47;15.10;;;7.00;97.60;;;;;;10509024;28;20024;-68
2022/01/26 00:41:09;;;;;;;44.33;14.20;;;7.00;97.70;;;;;;10521620;28;20469;-67
2022/01/26 00:46:11;;;;;;;43.40;14.82;;;6.90;97.60;;;;;;10513846;28;20063;-67
2022/01/26 00:51:17;;;;;;;45.60;14.10;;;6.90;97.60;;;;;;10501545;28;20032;-68
2022/01/26 00:56:18;;;;;;;45.13;15.02;;;6.90;97.60;;;;;;10528109;28;20462;-67
2022/01/26 01:01:19;;;;;;;48.85;14.85;;;7.00;97.60;;;;;;10517626;28;20116;-68
2022/01/26 01:06:29;;;;;;;47.22;14.82;;;6.90;97.60;;;;;;10517102;28;20067;-67
2022/01/26 01:11:29;;;;;;;45.53;14.90;;;6.90;97.60;;;;;;10495214;28;20058;-64
2022/01/26 01:16:30;;;;;;;48.97;15.48;;;6.90;97.60;;;;;;10490952;28;20546;-64
2022/01/26 01:31:57;;;;;;;46.17;15.25;;;6.90;97.60;;;;;;10532290;28;20040;-66
2022/01/26 01:37:03;;;;;;;52.75;15.82;;;6.90;97.60;;;;;;10502059;28;20047;-64
2022/01/26 01:42:06;;;;;;;45.50;14.20;;;6.90;97.60;;;;;;10501222;28;20027;-64
2022/01/26 01:47:07;;;;;;;50.03;16.75;;;6.90;97.60;;;;;;10494954;28;20056;-66
2022/01/26 01:52:13;;;;;;;48.10;16.10;;;6.90;97.60;;;;;;10489885;28;20507;-67
2022/01/26 01:57:21;;;;;;;42.83;15.60;;;6.90;97.60;;;;;;10506035;28;20031;-66
2022/01/26 02:02:21;;;;;;;51.47;16.48;;;6.90;97.60;;;;;;10501100;28;20024;-67
2022/01/26 02:07:22;;;;;;;48.60;14.88;;;7.00;97.70;;;;;;10503583;28;20032;-67
2022/01/26 02:12:25;;;;;;;48.55;14.20;;;6.90;97.90;;;;;;10488909;28;20037;-66
2022/01/26 02:17:48;;;;;;;51.78;15.95;;;6.90;97.60;;;;;;10489125;28;20029;-65
2022/01/26 02:54:52;;;;;;;40.63;13.13;;;6.90;97.70;;;;;;10490241;28;20024;-67
2022/01/26 03:05:15;;;;;;;48.33;15.43;;;6.80;97.60;;;;;;10520908;28;20432;-65
2022/01/26 03:10:35;;;;;;;46.53;15.38;;;6.80;97.60;;;;;;10526727;28;20035;-67
2022/01/26 03:15:42;;;;;;;48.33;16.02;;;6.80;97.60;;;;;;10492263;28;20044;-67
2022/01/26 03:20:45;;;;;;;46.95;14.88;;;6.80;97.60;;;;;;10512611;28;20367;-67
2022/01/26 03:36:14;;;;;;;44.92;14.82;;;6.80;97.40;;;;;;10503873;28;19970;-68
2022/01/26 03:46:50;;;;;;;47.88;15.13;;;6.70;97.60;;;;;;10465393;28;20490;-68
2022/01/26 03:51:51;;;;;;;41.75;13.85;;;6.70;97.60;;;;;;10445501;28;20098;-68
2022/01/26 03:56:51;;;;;;;42.25;13.45;;;6.70;97.60;;;;;;10488079;28;20062;-66
2022/01/26 04:01:52;;;;;;;41.30;14.35;;;6.70;97.60;;;;;;10464096;28;20028;-68
2022/01/26 04:06:54;;;;;;;43.15;13.90;;;6.70;97.60;;;;;;10478695;28;20036;-68
2022/01/26 04:11:55;;;;;;;43.28;13.48;;;6.90;97.60;;;;;;10444866;28;20439;-68
2022/01/26 04:16:56;;;;;;;44.33;14.30;;;6.70;97.50;;;;;;10448714;28;20048;-66
2022/01/26 04:22:15;;;;;;;46.42;14.23;;;6.70;97.50;;;;;;10475800;28;20029;-67
2022/01/26 04:32:19;;;;;;;39.63;12.88;;;6.70;97.50;;;;;;10489329;28;20020;-68
2022/01/26 04:38:10;;;;;;;43.00;12.90;;;6.70;97.50;;;;;;10451169;28;20025;-66
2022/01/26 04:43:04;;;;;;;47.95;14.20;;;6.70;97.50;;;;;;10477560;28;20040;-68
2022/01/26 04:48:05;;;;;;;38.90;12.40;;;6.70;97.50;;;;;;10493771;28;20063;-67
2022/01/26 04:53:05;;;;;;;37.60;12.32;;;6.70;97.70;;;;;;10504511;28;20342;-67
2022/01/26 04:58:06;;;;;;;38.47;11.85;;;6.60;97.50;;;;;;10530161;28;20032;-67
2022/01/26 05:03:07;;;;;;;36.40;11.35;;;6.60;97.40;;;;;;10505235;28;20032;-69
2022/01/26 05:08:07;;;;;;;38.58;11.55;;;6.70;97.50;;;;;;10521597;28;20119;-71
2022/01/26 05:13:10;;;;;;;37.55;11.80;;;6.60;97.50;;;;;;10502383;28;20107;-72
2022/01/26 05:18:12;;;;;;;42.40;12.38;;;6.60;97.40;;;;;;10501451;28;20023;-70
2022/01/26 05:23:12;;;;;;;37.45;11.70;;;6.60;97.50;;;;;;10502387;28;20565;-68
2022/01/26 05:28:13;;;;;;;34.47;11.25;;;6.70;97.40;;;;;;10528079;28;20032;-69
2022/01/26 05:33:14;;;;;;;35.97;11.38;;;6.70;97.40;;;;;;10508441;28;20485;-72
2022/01/26 05:38:14;;;;;;;37.55;12.20;;;6.60;97.40;;;;;;10490819;28;20033;-70
2022/01/26 05:43:15;;;;;;;34.50;10.13;;;6.60;97.40;;;;;;10509497;28;20433;-69
2022/01/26 05:48:16;;;;;;;38.58;11.10;;;6.60;97.50;;;;;;10490385;28;20368;-69
2022/01/26 05:53:20;;;;;;;35.63;10.70;;;6.50;97.40;;;;;;10499091;28;20028;-67
2022/01/26 05:58:21;;;;;;;35.42;11.85;;;6.60;97.40;;;;;;10540548;28;20493;-66
2022/01/26 06:03:22;;;;;;;35.40;9.70;;;6.70;97.40;;;;;;10517701;28;20048;-68
2022/01/26 06:08:24;;;;;;;33.58;11.25;;;6.50;97.60;;;;;;10523406;28;20036;-69
2022/01/26 06:13:25;;;;;;;34.10;11.23;;;6.60;97.40;;;;;;10491915;28;20028;-70
2022/01/26 06:18:26;;;;;;;35.35;11.65;;;6.50;97.40;;;;;;10497658;28;20051;-68
2022/01/26 06:23:27;;;;;;;32.72;10.65;;;6.60;97.40;;;;;;10500358;28;20487;-70
2022/01/26 06:28:28;;;;;;;31.55;10.10;;;6.50;97.30;;;;;;10531482;28;20036;-64
2022/01/26 06:33:30;;;;;;;30.65;9.85;;;6.60;97.30;;;;;;10529344;28;20402;-67
2022/01/26 06:38:31;;;;;;;34.75;10.88;;;6.60;97.30;;;;;;10491561;28;20020;-70
2022/01/26 06:43:32;;;;;;;34.28;10.48;;;6.50;97.30;;;;;;10508009;28;20466;-69
2022/01/26 06:49:00;;;;;;;30.23;10.18;;;6.50;97.30;;;;;;10487232;28;20131;-69
2022/01/26 06:54:00;;;;;;;32.15;10.05;;;6.50;97.30;;;;;;10488800;28;20086;-69
2022/01/26 06:59:01;;;;;;;34.45;11.23;;;6.50;97.30;;;;;;10526934;28;20240;-67
2022/01/26 07:04:02;;;;;;;30.65;10.48;;;5.70;97.10;;;;;;10508582;28;20550;-71
2022/01/26 07:09:03;;;;;;;32.38;9.95;;;6.50;97.30;;;;;;10522015;28;20567;-70
2022/01/26 07:14:08;;;;;;;34.55;12.02;;;6.50;97.30;;;;;;10499065;28;20398;-65
2022/01/26 07:24:28;;;;;;;39.00;12.63;;;6.50;97.30;;;;;;10492528;28;20079;-66
2022/01/26 07:29:29;;;;;;;37.90;12.48;;;6.50;97.30;;;;;;10498996;28;20060;-66
2022/01/26 07:34:29;;;;;;;35.67;13.52;;;6.60;97.40;;;;;;10506425;28;20074;-63
2022/01/26 07:39:42;;;;;;;39.08;12.63;;;6.50;97.30;;;;;;10482088;28;20032;-67
2022/01/26 07:44:43;;;;;;;40.78;13.63;;;6.50;97.30;;;;;;10469087;28;20053;-67
2022/01/26 07:49:43;;;;;;;36.95;13.85;;;6.50;97.30;;;;;;10452777;28;20502;-66
2022/01/26 07:54:45;;;;;;;45.92;14.63;;;6.50;97.40;;;;;;10451978;28;20029;-66
2022/01/26 07:59:47;;;;;;;51.40;16.40;;;6.50;97.40;;;;;;10481682;28;20016;-66
2022/01/26 08:04:47;;;;;;;46.05;15.55;;;6.70;97.40;;;;;;10463587;28;20040;-64
2022/01/26 08:09:48;;;;;;;52.28;16.08;;;6.50;97.40;;;;;;10460381;28;20036;-66
2022/01/26 08:14:49;;;;;;;47.35;16.55;;;6.50;97.40;;;;;;10445546;28;20395;-65
2022/01/26 08:19:53;;;;;;;53.53;17.67;;;6.60;97.40;;;;;;10458352;28;20403;-65
2022/01/26 08:24:53;;;;;;;50.28;17.80;;;6.50;97.40;;;;;;10453816;28;20308;-65
2022/01/26 08:30:02;;;;;;;47.47;16.52;;;6.60;97.40;;;;;;10483768;28;20025;-65
2022/01/26 08:35:04;;;;;;;57.17;18.88;;;6.50;97.40;;;;;;10471169;28;20029;-65
2022/01/26 08:40:06;;;;;;;53.47;19.27;;;6.60;97.40;;;;;;10455303;28;20048;-65
2022/01/26 08:45:07;;;;;;;54.05;19.13;;;6.60;97.40;;;;;;10484383;28;20060;-66
2022/01/26 08:50:08;;;;;;;54.97;19.40;;;6.60;97.50;;;;;;10492030;28;20119;-66
2022/01/26 08:55:10;;;;;;;59.33;19.10;;;6.60;97.50;;;;;;10516728;28;20085;-66
2022/01/26 09:00:12;;;;;;;59.05;20.48;;;6.60;97.50;;;;;;10536531;28;20031;-66
2022/01/26 09:05:13;;;;;;;61.97;21.27;;;6.60;97.50;;;;;;10529685;28;20044;-65
2022/01/26 09:10:14;;;;;;;57.95;20.17;;;6.60;97.50;;;;;;10515138;28;20459;-65
2022/01/26 09:15:15;;;;;;;61.70;19.90;;;6.60;97.50;;;;;;10502520;28;20029;-64
2022/01/26 09:20:16;;;;;;;63.15;21.20;;;6.60;97.50;;;;;;10511845;28;20542;-66
2022/01/26 09:25:17;;;;;;;55.83;19.10;;;6.60;97.50;;;;;;10505180;28;20024;-66
2022/01/26 09:30:18;;;;;;;63.80;20.95;;;6.60;97.50;;;;;;10497204;28;20094;-66
2022/01/26 09:35:18;;;;;;;64.90;22.20;;;6.60;97.50;;;;;;10502210;28;20383;-66
2022/01/26 09:40:19;;;;;;;56.22;20.27;;;6.60;97.50;;;;;;10523185;28;20020;-66
2022/01/26 09:45:20;;;;;;;62.15;19.75;;;6.60;97.50;;;;;;10514064;28;20067;-66
2022/01/26 09:50:21;;;;;;;61.58;21.08;;;6.70;97.60;;;;;;10479984;28;20020;-67
2022/01/26 09:55:22;;;;;;;63.13;21.85;;;6.60;97.50;;;;;;10455705;28;20021;-66
2022/01/26 10:00:23;;;;;;;60.90;20.08;;;6.70;97.60;;;;;;10488188;28;20391;-66
2022/01/26 10:05:24;;;;;;;61.42;21.15;;;7.00;97.60;;;;;;10485593;28;20032;-65
2022/01/26 10:15:31;;;;;;;55.40;18.83;;;6.50;97.50;;;;;;10447097;28;20525;-66
2022/01/26 10:20:43;;;;;;;58.30;20.10;;;6.70;97.60;;;;;;10465824;28;20037;-64
2022/01/26 10:25:46;;;;;;;54.40;19.35;;;6.70;97.60;;;;;;10487313;28;20032;-64
2022/01/26 10:30:49;;;;;;;54.72;19.25;;;6.70;97.60;;;;;;10487871;28;20048;-66
2022/01/26 10:36:00;;;;;;;59.50;19.17;;;6.80;97.60;;;;;;10486713;28;20061;-64
2022/01/26 10:41:01;;;;;;;57.63;18.60;;;6.70;97.60;;;;;;10458146;28;20438;-65
2022/01/26 10:46:06;;;;;;;48.67;17.80;;;6.80;97.60;;;;;;10483904;28;20134;-62
2022/01/26 10:52:05;;;;;;;52.00;17.65;;;6.80;97.60;;;;;;10487185;28;20067;-63
2022/01/26 10:56:41;;;;;;;53.83;17.13;;;7.00;97.60;;;;;;10515229;28;20101;-65
2022/01/26 11:01:42;;;;;;;45.38;16.70;;;6.80;97.60;;;;;;10514860;28;20050;-65
2022/01/26 11:06:48;;;;;;;51.92;17.70;;;6.80;97.60;;;;;;10518398;28;20057;-67
2022/01/26 11:12:00;;;;;;;47.00;17.08;;;6.80;97.60;;;;;;10486704;28;20020;-67
2022/01/26 11:17:01;;;;;;;45.33;16.55;;;6.90;97.60;;;;;;10486113;28;20028;-66
2022/01/26 11:22:10;;;;;;;48.80;16.00;;;6.90;97.60;;;;;;10503142;28;20012;-66
2022/01/26 11:27:12;;;;;;;46.28;16.55;;;6.80;97.50;;;;;;10503817;28;20041;-67
2022/01/26 11:32:22;;;;;;;44.58;16.25;;;6.90;97.60;;;;;;10493369;28;20427;-65
2022/01/26 11:37:38;;;;;;;45.50;15.80;;;6.90;97.60;;;;;;10492544;28;20029;-65
2022/01/26 11:48:21;;;;;;;51.15;16.02;;;6.90;97.60;;;;;;10486692;28;20048;-66
2022/01/26 11:53:25;;;;;;;43.45;14.95;;;6.90;97.60;;;;;;10496870;28;20119;-66
2022/01/26 11:58:34;;;;;;;48.22;14.95;;;6.90;97.60;;;;;;10536982;28;20457;-66
2022/01/26 12:03:43;;;;;;;46.65;15.38;;;6.90;97.60;;;;;;10523462;28;20500;-67
2022/01/26 12:08:45;;;;;;;58.75;17.58;;;7.00;97.70;;;;;;10510792;28;20150;-67
2022/01/26 12:13:50;;;;;;;47.20;17.50;;;6.80;97.60;;;;;;10513618;28;20027;-68
2022/01/26 12:46:16;;;;;;;43.20;15.70;;;6.20;98.30;;;;;;10503880;28;20064;-67
2022/01/26 12:51:17;;;;;;;49.30;15.50;;;6.20;98.40;;;;;;10484719;28;20382;-66
2022/01/26 12:56:18;;;;;;;47.70;16.80;;;6.10;98.50;;;;;;10520574;28;20030;-66
2022/01/26 13:01:19;;;;;;;44.17;15.38;;;6.00;98.80;;;;;;10527126;28;20101;-66
2022/01/26 13:06:34;;;;;;;52.50;16.95;;;6.00;98.80;;;;;;10533690;28;20039;-67
2022/01/26 13:11:36;;;;;;;50.00;16.60;;;6.10;98.70;;;;;;10469268;28;20514;-66
2022/01/26 13:16:39;;;;;;;53.70;17.60;;;6.20;98.70;;;;;;10482551;28;20033;-68
2022/01/26 13:26:57;;;;;;;52.75;17.83;;;6.10;98.80;;;;;;10494378;28;20411;-67
2022/01/26 13:37:25;;;;;;;42.67;16.48;;;6.10;98.90;;;;;;10490259;28;20033;-68
2022/01/26 13:52:54;;;;;;;47.00;15.63;;;6.00;99.20;;;;;;10489693;28;20032;-68
2022/01/26 13:58:17;;;;;;;49.55;17.02;;;6.00;99.20;;;;;;10494964;28;20032;-68
2022/01/26 14:03:16;;;;;;;44.47;14.98;;;4.80;99.00;;;;;;10492249;28;20036;-67
2022/01/26 14:08:17;;;;;;;45.40;17.10;;;6.00;99.30;;;;;;10526916;28;20435;-68
2022/01/26 14:13:23;;;;;;;51.72;15.55;;;6.00;99.30;;;;;;10490453;28;20324;-67
2022/01/26 14:23:57;;;;;;;50.70;16.70;;;6.00;99.50;;;;;;10512504;28;20544;-68
2022/01/26 14:28:59;;;;;;;42.65;14.52;;;6.00;99.50;;;;;;10513465;28;20062;-65
2022/01/26 14:55:29;;;;;;;38.28;13.00;;;6.80;99.30;;;;;;10497229;28;20498;-68
2022/01/26 15:01:03;;;;;;;48.10;14.57;;;6.90;99.00;;;;;;10498633;28;20039;-68
2022/01/26 17:02:57;;;;;;;;;;;6.90;99.20;;;;;;10513972;28;20063;-63
2022/01/26 18:17:30;;;;;;;28.58;10.15;;;7.10;99.30;;;;;;10498522;28;20495;-65
2022/01/26 18:33:12;;;;;;;28.80;10.30;;;7.00;99.30;;;;;;10527379;28;20048;-64
2022/01/26 18:54:12;;;;;;;24.92;9.38;;;7.10;99.30;;;;;;10495553;28;20037;-65
2022/01/26 18:59:14;;;;;;;27.05;10.25;;;7.00;99.30;;;;;;10515462;28;20458;-64
2022/01/26 19:04:17;;;;;;;25.90;10.82;;;7.10;99.30;;;;;;10485726;28;20074;-62
2022/01/26 19:09:22;;;;;;;28.52;10.93;;;7.40;99.40;;;;;;10531037;28;20024;-62
2022/01/26 19:14:27;;;;;;;28.65;10.35;;;7.10;99.60;;;;;;10525940;28;20032;-64
2022/01/26 19:19:37;;;;;;;26.67;9.82;;;7.10;99.30;;;;;;10519048;28;20066;-63
2022/01/26 19:40:24;;;;;;;28.00;11.77;;;7.10;99.40;;;;;;10526460;28;20390;-65
2022/01/26 19:56:00;;;;;;;29.52;11.82;;;7.10;99.40;;;;;;10479916;28;20044;-65
2022/01/26 20:01:01;;;;;;;29.98;11.50;;;7.10;99.40;;;;;;10520190;28;20024;-64
2022/01/26 20:06:08;;;;;;;32.03;11.88;;;7.30;99.50;;;;;;10510086;28;20028;-65
2022/01/26 20:11:23;;;;;;;31.77;12.27;;;7.10;99.50;;;;;;10509732;28;20037;-63
2022/01/26 20:16:26;;;;;;;26.17;11.27;;;7.10;99.50;;;;;;10490623;28;20490;-64
2022/01/26 20:21:27;;;;;;;30.40;12.35;;;7.10;99.40;;;;;;10499901;28;20033;-64
2022/01/26 20:26:27;;;;;;;28.73;12.43;;;7.20;99.50;;;;;;10506662;28;20040;-63
2022/01/26 20:31:28;;;;;;;35.25;13.02;;;7.10;99.40;;;;;;10517002;28;20056;-64
2022/01/26 20:36:29;;;;;;;31.73;12.48;;;7.10;99.50;;;;;;10490781;28;20032;-63
2022/01/26 20:41:30;;;;;;;34.10;13.13;;;7.30;99.50;;;;;;10509228;28;20549;-64
2022/01/26 20:46:31;;;;;;;33.40;12.93;;;7.10;99.40;;;;;;10514112;28;20060;-64
2022/01/26 20:51:32;;;;;;;31.63;12.63;;;7.10;99.40;;;;;;10514494;28;20827;-63
2022/01/26 20:56:34;;;;;;;32.05;12.90;;;7.10;99.40;;;;;;10512787;28;20058;-63
2022/01/26 21:01:35;;;;;;;26.42;11.48;;;7.10;99.50;;;;;;10519826;28;20470;-64
2022/01/26 21:06:35;;;;;;;33.42;13.55;;;7.10;99.40;;;;;;10517839;28;20378;-64
2022/01/26 21:11:36;;;;;;;27.58;11.30;;;7.10;99.40;;;;;;10517118;28;20027;-64
2022/01/26 21:16:38;;;;;;;31.88;12.02;;;7.10;99.40;;;;;;10518662;28;20167;-64
2022/01/26 21:21:38;;;;;;;30.77;12.13;;;7.10;99.40;;;;;;10512578;28;20051;-63
2022/01/26 21:26:39;;;;;;;28.88;11.70;;;7.20;99.50;;;;;;10513218;28;20051;-64
2022/01/26 21:31:40;;;;;;;28.23;12.02;;;7.30;99.50;;;;;;10505964;28;20101;-66
2022/01/26 21:36:41;;;;;;;31.58;12.63;;;7.10;99.50;;;;;;10502271;28;20047;-67
2022/01/26 21:41:42;;;;;;;29.55;12.48;;;7.10;99.50;;;;;;10520916;28;20076;-66
2022/01/26 21:46:43;;;;;;;28.33;11.57;;;7.10;99.50;;;;;;10503825;28;20044;-67
2022/01/26 21:51:44;;;;;;;30.60;12.23;;;7.30;99.50;;;;;;10517113;28;20173;-64
2022/01/26 21:56:45;;;;;;;31.27;12.85;;;7.10;99.50;;;;;;10530007;28;20079;-63
2022/01/26 22:01:45;;;;;;;30.95;11.77;;;7.20;99.50;;;;;;10512573;28;20024;-67
2022/01/26 22:06:46;;;;;;;26.80;11.23;;;7.20;99.50;;;;;;10518519;28;20631;-66
2022/01/26 22:11:47;;;;;;;26.75;11.18;;;7.10;99.50;;;;;;10515162;28;20514;-65
2022/01/26 22:16:48;;;;;;;32.10;12.35;;;7.10;99.50;;;;;;10518099;28;20020;-63
2022/01/26 22:21:49;;;;;;;26.13;11.45;;;7.10;99.50;;;;;;10510967;28;20399;-63
2022/01/26 22:26:50;;;;;;;30.35;12.65;;;7.10;99.50;;;;;;10513937;28;20036;-64
2022/01/26 22:31:52;;;;;;;28.38;11.80;;;7.10;99.50;;;;;;10518025;28;20085;-65
2022/01/26 22:36:53;;;;;;;36.00;13.00;;;7.10;99.50;;;;;;10514630;28;20039;-62
2022/01/26 22:41:54;;;;;;;30.73;12.25;;;7.20;99.50;;;;;;10505741;28;20488;-65
2022/01/26 22:46:55;;;;;;;27.95;11.43;;;7.40;99.50;;;;;;10476096;28;20086;-64
2022/01/26 22:51:55;;;;;;;27.27;11.45;;;7.20;99.50;;;;;;10461855;28;20039;-64
2022/01/26 22:56:58;;;;;;;28.05;11.75;;;7.20;99.70;;;;;;10462603;28;20116;-64
2022/01/26 23:07:00;;;;;;;29.80;12.05;;;7.10;99.40;;;;;;10464054;28;20037;-63
2022/01/26 23:12:01;;;;;;;28.63;10.57;;;7.20;99.40;;;;;;10475154;28;20077;-65
2022/01/26 23:17:02;;;;;;;29.25;11.75;;;7.20;99.50;;;;;;10470880;28;20029;-66
2022/01/26 23:22:03;;;;;;;25.45;11.00;;;7.10;99.40;;;;;;10489165;28;20024;-64
2022/01/26 23:38:19;;;;;;;27.27;11.27;;;7.20;99.40;;;;;;10469605;28;20059;-64
